createdAt,value
2023-04-08T00:00:16.210Z,3.95
2023-04-08T00:03:04.160Z,3.67
2023-04-08T00:05:51.690Z,3.92
2023-04-08T00:08:39.126Z,4.00
2023-04-08T00:11:26.748Z,3.70
2023-04-08T00:14:14.156Z,4.60
2023-04-08T00:17:01.630Z,4.38
2023-04-08T00:19:49.505Z,4.72
2023-04-08T00:22:36.994Z,3.75
2023-04-08T00:25:25.562Z,3.83
2023-04-08T00:28:13.904Z,4.13
2023-04-08T00:31:01.344Z,4.57
2023-04-08T00:33:48.974Z,3.92
2023-04-08T00:36:36.388Z,4.40
2023-04-08T00:39:23.773Z,4.53
2023-04-08T00:42:11.611Z,4.88
2023-04-08T00:44:59.014Z,4.43
2023-04-08T00:47:47.166Z,4.60
2023-04-08T00:50:34.847Z,6.03
2023-04-08T00:53:23.293Z,6.60
2023-04-08T00:56:11.668Z,7.07
2023-04-08T00:59:02.708Z,6.65
2023-04-08T01:02:16.455Z,6.93
2023-04-08T01:05:07.012Z,8.27
2023-04-08T01:07:54.591Z,9.43
2023-04-08T01:10:45.627Z,10.40
2023-04-08T01:13:36.706Z,12.23
2023-04-08T01:16:26.495Z,12.02
2023-04-08T01:19:26.101Z,13.27
2023-04-08T01:22:33.202Z,13.60
2023-04-08T01:25:30.451Z,14.52
2023-04-08T01:28:19.726Z,15.63
2023-04-08T01:31:08.082Z,13.50
2023-04-08T01:33:57.644Z,14.77
2023-04-08T01:36:46.785Z,16.02
2023-04-08T01:39:36.145Z,15.52
2023-04-08T01:42:25.908Z,17.20
2023-04-08T01:45:14.541Z,16.40
2023-04-08T01:48:03.816Z,16.35
2023-04-08T01:50:52.725Z,17.50
2023-04-08T01:53:40.309Z,17.63
2023-04-08T01:56:30.600Z,18.40
2023-04-08T01:59:19.832Z,22.25
2023-04-08T02:02:09.334Z,24.00
2023-04-08T02:04:56.828Z,27.23
2023-04-08T02:07:46.679Z,26.48
2023-04-08T02:10:34.533Z,28.35
2023-04-08T02:13:21.974Z,30.15
2023-04-08T02:16:19.441Z,27.70
2023-04-08T02:19:15.524Z,30.98
2023-04-08T02:22:09.372Z,34.30
2023-04-08T02:24:58.502Z,31.77
2023-04-08T02:27:48.736Z,32.75
2023-04-08T02:30:48.674Z,33.17
2023-04-08T02:33:37.180Z,31.95
2023-04-08T02:36:26.695Z,35.33
2023-04-08T02:39:14.365Z,34.28
2023-04-08T02:42:01.905Z,34.33
2023-04-08T02:44:49.513Z,35.08
2023-04-08T02:47:37.015Z,35.35
2023-04-08T02:50:24.625Z,33.08
2023-04-08T02:53:12.139Z,32.33
2023-04-08T02:55:59.584Z,26.92
2023-04-08T02:58:47.157Z,31.58
2023-04-08T03:01:34.826Z,32.13
2023-04-08T03:04:22.339Z,27.15
2023-04-08T03:07:09.797Z,25.15
2023-04-08T03:09:57.256Z,26.92
2023-04-08T03:12:44.705Z,33.10
2023-04-08T03:15:32.241Z,38.35
2023-04-08T03:18:19.764Z,29.52
2023-04-08T03:21:07.175Z,27.23
2023-04-08T03:23:54.650Z,27.48
2023-04-08T03:26:42.102Z,27.35
2023-04-08T03:29:29.592Z,32.70
2023-04-08T03:32:17.191Z,30.75
2023-04-08T03:35:06.223Z,30.88
2023-04-08T03:37:55.012Z,30.00
2023-04-08T03:40:42.389Z,30.58
2023-04-08T03:43:29.881Z,29.52
2023-04-08T03:46:17.367Z,31.98
2023-04-08T03:49:04.904Z,32.80
2023-04-08T03:51:52.368Z,29.20
2023-04-08T03:54:39.842Z,30.88
2023-04-08T03:57:27.368Z,26.27
2023-04-08T04:00:15.398Z,31.40
2023-04-08T04:03:02.963Z,33.17
2023-04-08T04:05:51.115Z,32.00
2023-04-08T04:08:38.579Z,29.05
2023-04-08T04:11:26.440Z,27.55
2023-04-08T04:14:13.894Z,29.05
2023-04-08T04:17:01.343Z,29.50
2023-04-08T04:19:48.775Z,26.42
2023-04-08T04:22:36.215Z,30.30
2023-04-08T04:25:24.056Z,25.67
2023-04-08T04:28:11.497Z,31.58
2023-04-08T04:30:58.916Z,28.98
2023-04-08T04:33:47.342Z,27.20
2023-04-08T04:36:35.373Z,26.90
2023-04-08T04:39:22.836Z,31.00
2023-04-08T04:42:10.441Z,27.83
2023-04-08T04:44:58.966Z,28.10
2023-04-08T04:47:46.377Z,25.55
2023-04-08T04:50:33.905Z,26.88
2023-04-08T04:53:21.409Z,25.83
2023-04-08T04:56:08.872Z,25.40
2023-04-08T04:58:56.306Z,26.13
2023-04-08T05:01:43.852Z,24.30
2023-04-08T05:04:31.467Z,23.08
2023-04-08T05:07:19.469Z,22.42
2023-04-08T05:10:07.303Z,21.50
2023-04-08T05:12:54.784Z,23.80
2023-04-08T05:15:42.306Z,25.77
2023-04-08T05:18:29.767Z,22.25
2023-04-08T05:21:17.236Z,23.42
2023-04-08T05:24:04.741Z,27.55
2023-04-08T05:26:53.408Z,22.30
2023-04-08T05:29:41.523Z,22.67
2023-04-08T05:32:30.417Z,23.25
2023-04-08T05:35:17.811Z,21.85
2023-04-08T05:38:05.387Z,22.25
2023-04-08T05:40:52.831Z,26.98
2023-04-08T05:43:40.419Z,24.58
2023-04-08T05:46:28.397Z,23.40
2023-04-08T05:49:17.342Z,26.33
2023-04-08T05:52:04.902Z,26.13
2023-04-08T05:54:52.539Z,22.98
2023-04-08T05:57:40.791Z,25.20
2023-04-08T06:00:28.212Z,25.88
2023-04-08T06:03:17.551Z,26.65
2023-04-08T06:06:13.732Z,27.25
2023-04-08T06:09:01.274Z,23.92
2023-04-08T06:11:50.659Z,27.25
2023-04-08T06:14:38.808Z,28.05
2023-04-08T06:17:26.589Z,24.40
2023-04-08T06:20:14.071Z,27.02
2023-04-08T06:23:01.505Z,24.13
2023-04-08T06:25:48.931Z,24.85
2023-04-08T06:28:36.756Z,27.40
2023-04-08T06:31:24.839Z,27.60
2023-04-08T06:34:12.363Z,23.70
2023-04-08T06:36:59.811Z,25.40
2023-04-08T06:39:47.244Z,20.90
2023-04-08T06:42:34.796Z,21.50
2023-04-08T06:45:22.958Z,21.00
2023-04-08T06:48:10.393Z,26.40
2023-04-08T06:50:59.528Z,26.50
2023-04-08T06:53:47.478Z,21.67
2023-04-08T06:56:34.980Z,21.20
2023-04-08T06:59:22.629Z,23.33
2023-04-08T07:02:10.089Z,18.75
2023-04-08T07:04:57.750Z,19.25
2023-04-08T07:07:45.375Z,21.00
2023-04-08T07:10:32.875Z,18.50
2023-04-08T07:13:20.290Z,19.83
2023-04-08T07:16:07.830Z,18.17
2023-04-08T07:18:55.616Z,18.70
2023-04-08T07:21:43.158Z,17.98
2023-04-08T07:24:30.609Z,17.00
2023-04-08T07:27:18.134Z,18.52
2023-04-08T07:30:06.200Z,18.35
2023-04-08T07:32:55.948Z,16.95
2023-04-08T07:35:44.541Z,17.38
2023-04-08T07:38:32.309Z,19.23
2023-04-08T07:41:20.961Z,16.98
2023-04-08T07:44:08.399Z,18.58
2023-04-08T07:46:55.858Z,16.20
2023-04-08T07:49:45.672Z,17.27
2023-04-08T07:52:33.690Z,19.60
2023-04-08T07:55:21.208Z,16.55
2023-04-08T07:58:08.876Z,17.25
2023-04-08T08:00:57.488Z,16.92
2023-04-08T08:03:45.960Z,16.48
2023-04-08T08:06:33.728Z,21.23
2023-04-08T08:09:21.311Z,16.50
2023-04-08T08:12:09.025Z,15.15
2023-04-08T08:14:59.038Z,15.88
2023-04-08T08:17:46.592Z,18.15
2023-04-08T08:20:36.169Z,17.77
2023-04-08T08:23:23.743Z,19.02
2023-04-08T08:26:11.255Z,18.25
2023-04-08T08:28:58.709Z,16.27
2023-04-08T08:31:48.550Z,16.83
2023-04-08T08:34:36.138Z,16.77
2023-04-08T08:37:23.622Z,18.58
2023-04-08T08:40:11.643Z,17.60
2023-04-08T08:43:01.293Z,18.10
2023-04-08T08:45:48.862Z,19.30
2023-04-08T08:48:38.734Z,17.73
2023-04-08T08:51:28.656Z,22.75
2023-04-08T08:54:16.212Z,19.88
2023-04-08T08:57:03.883Z,20.55
2023-04-08T08:59:51.451Z,20.60
2023-04-08T09:02:39.005Z,23.80
2023-04-08T09:05:26.771Z,19.98
2023-04-08T09:08:42.179Z,19.38
2023-04-08T09:11:29.578Z,19.13
2023-04-08T09:14:26.455Z,21.40
2023-04-08T09:17:14.334Z,20.90
2023-04-08T09:20:12.768Z,20.48
2023-04-08T09:23:01.781Z,16.75
2023-04-08T09:25:49.521Z,17.65
2023-04-08T09:28:37.958Z,16.33
2023-04-08T09:31:28.241Z,16.63
2023-04-08T09:34:17.548Z,16.83
2023-04-08T09:37:05.187Z,15.93
2023-04-08T09:39:52.687Z,18.50
2023-04-08T09:42:44.296Z,15.88
2023-04-08T09:45:36.556Z,16.15
2023-04-08T09:48:32.899Z,15.35
2023-04-08T09:51:23.554Z,15.15
2023-04-08T09:54:18.576Z,13.98
2023-04-08T09:57:14.162Z,19.55
2023-04-08T10:00:09.779Z,16.33
2023-04-08T10:03:22.388Z,13.30
2023-04-08T10:06:12.039Z,12.82
2023-04-08T10:09:02.072Z,15.35
2023-04-08T10:11:50.079Z,13.02
2023-04-08T10:14:37.626Z,14.18
2023-04-08T10:17:28.616Z,15.20
2023-04-08T10:20:36.499Z,14.02
2023-04-08T10:23:54.865Z,25.67
2023-04-08T10:26:44.191Z,11.68
2023-04-08T10:29:32.342Z,11.57
2023-04-08T10:32:30.134Z,12.07
2023-04-08T10:35:17.686Z,11.45
2023-04-08T10:38:05.698Z,12.85
2023-04-08T10:40:54.854Z,10.27
2023-04-08T10:43:42.349Z,9.68
2023-04-08T10:46:37.813Z,10.10
2023-04-08T10:49:33.725Z,9.68
2023-04-08T10:52:21.870Z,12.52
2023-04-08T10:55:09.426Z,10.75
2023-04-08T10:58:06.485Z,7.97
2023-04-08T11:00:53.950Z,10.98
2023-04-08T11:03:43.455Z,10.98
2023-04-08T11:06:32.159Z,11.07
2023-04-08T11:09:20.009Z,10.30
2023-04-08T11:12:08.222Z,8.32
2023-04-08T11:14:57.309Z,7.95
2023-04-08T11:17:45.050Z,10.68
2023-04-08T11:20:37.109Z,9.38
2023-04-08T11:23:28.008Z,11.00
2023-04-08T11:26:15.678Z,10.45
2023-04-08T11:29:03.837Z,10.60
2023-04-08T11:31:51.464Z,9.40
2023-04-08T11:34:42.232Z,10.35
2023-04-08T11:37:41.464Z,9.52
2023-04-08T11:40:28.891Z,10.90
2023-04-08T11:43:16.344Z,10.95
2023-04-08T11:46:11.522Z,12.30
2023-04-08T11:49:10.089Z,11.48
2023-04-08T11:51:59.848Z,11.52
2023-04-08T11:54:48.871Z,13.27
2023-04-08T11:57:36.681Z,11.93
2023-04-08T12:00:24.458Z,11.65
2023-04-08T12:03:13.045Z,8.20
2023-04-08T12:06:00.602Z,9.38
2023-04-08T12:08:48.107Z,9.85
2023-04-08T12:11:35.801Z,9.77
2023-04-08T12:14:26.772Z,9.25
2023-04-08T12:17:16.018Z,8.60
2023-04-08T12:20:04.224Z,10.82
2023-04-08T12:22:51.694Z,9.57
2023-04-08T12:25:39.265Z,7.90
2023-04-08T12:28:26.934Z,7.20
2023-04-08T12:31:14.497Z,8.13
2023-04-08T12:34:02.040Z,8.68
2023-04-08T12:36:49.907Z,9.10
2023-04-08T12:39:38.432Z,8.13
2023-04-08T12:42:26.509Z,9.15
2023-04-08T12:45:14.123Z,9.55
2023-04-08T12:48:01.694Z,9.13
2023-04-08T12:50:49.188Z,10.88
2023-04-08T12:53:36.703Z,11.85
2023-04-08T12:56:24.320Z,12.43
2023-04-08T12:59:12.039Z,12.90
2023-04-08T13:01:59.815Z,14.18
2023-04-08T13:04:47.475Z,11.85
2023-04-08T13:07:34.974Z,9.07
2023-04-08T13:10:22.476Z,7.60
2023-04-08T13:13:09.924Z,6.93
2023-04-08T13:15:57.867Z,9.27
2023-04-08T13:18:45.632Z,8.00
2023-04-08T13:21:33.155Z,10.38
2023-04-08T13:24:20.613Z,10.10
2023-04-08T13:27:08.323Z,11.15
2023-04-08T13:29:56.004Z,11.73
2023-04-08T13:32:43.534Z,11.52
2023-04-08T13:35:31.397Z,11.98
2023-04-08T13:38:18.876Z,11.23
2023-04-08T13:41:06.783Z,18.25
2023-04-08T13:43:54.195Z,11.95
2023-04-08T13:46:42.317Z,12.30
2023-04-08T13:49:30.173Z,13.90
2023-04-08T13:52:17.630Z,13.05
2023-04-08T13:55:05.921Z,11.10
2023-04-08T13:57:53.383Z,10.95
2023-04-08T14:00:40.791Z,11.70
2023-04-08T14:03:28.353Z,10.20
2023-04-08T14:06:15.972Z,9.93
2023-04-08T14:09:03.516Z,10.45
2023-04-08T14:11:50.983Z,9.77
2023-04-08T14:14:38.527Z,9.45
2023-04-08T14:17:26.057Z,10.15
2023-04-08T14:20:13.536Z,9.20
2023-04-08T14:23:01.214Z,11.32
2023-04-08T14:25:48.683Z,12.20
2023-04-08T14:28:36.603Z,11.45
2023-04-08T14:31:24.150Z,11.10
2023-04-08T14:34:11.744Z,12.60
2023-04-08T14:36:59.207Z,13.57
2023-04-08T14:39:46.788Z,13.65
2023-04-08T14:42:34.236Z,12.90
2023-04-08T14:45:21.864Z,14.95
2023-04-08T14:48:09.377Z,15.82
2023-04-08T14:50:57.462Z,15.00
2023-04-08T14:53:44.994Z,15.85
2023-04-08T14:56:32.570Z,17.02
2023-04-08T14:59:20.076Z,17.50
2023-04-08T15:02:07.613Z,16.33
2023-04-08T15:04:55.370Z,16.65
2023-04-08T15:07:43.129Z,15.15
2023-04-08T15:10:31.265Z,17.17
2023-04-08T15:13:18.706Z,14.65
2023-04-08T15:16:06.241Z,13.75
2023-04-08T15:18:54.999Z,13.75
2023-04-08T15:21:42.518Z,13.52
2023-04-08T15:24:30.006Z,13.63
2023-04-08T15:27:17.440Z,13.85
2023-04-08T15:30:06.541Z,14.07
2023-04-08T15:32:55.560Z,11.55
2023-04-08T15:35:48.674Z,11.80
2023-04-08T15:38:36.410Z,13.95
2023-04-08T15:41:24.171Z,14.10
2023-04-08T15:44:11.611Z,14.07
2023-04-08T15:46:59.085Z,13.18
2023-04-08T15:49:48.754Z,13.40
2023-04-08T15:52:36.314Z,15.25
2023-04-08T15:55:23.792Z,14.68
2023-04-08T15:58:11.248Z,16.13
2023-04-08T16:00:58.658Z,15.23
2023-04-08T16:03:46.559Z,16.25
2023-04-08T16:06:34.893Z,18.08
2023-04-08T16:09:25.848Z,16.70
2023-04-08T16:12:14.743Z,19.23
2023-04-08T16:15:02.840Z,16.45
2023-04-08T16:17:53.054Z,19.92
2023-04-08T16:20:40.950Z,16.13
2023-04-08T16:23:28.649Z,15.57
2023-04-08T16:26:16.096Z,18.45
2023-04-08T16:29:03.525Z,18.17
2023-04-08T16:31:53.183Z,18.90
2023-04-08T16:34:42.576Z,19.52
2023-04-08T16:37:30.442Z,17.35
2023-04-08T16:40:17.915Z,20.05
2023-04-08T16:43:06.321Z,18.63
2023-04-08T16:45:54.073Z,20.73
2023-04-08T16:48:42.354Z,18.88
2023-04-08T16:51:29.778Z,18.92
2023-04-08T16:54:17.255Z,19.50
2023-04-08T16:57:04.954Z,21.55
2023-04-08T16:59:52.884Z,19.88
2023-04-08T17:02:40.502Z,19.58
2023-04-08T17:05:28.171Z,23.05
2023-04-08T17:08:15.737Z,16.25
2023-04-08T17:11:11.831Z,17.90
2023-04-08T17:13:59.639Z,13.05
2023-04-08T17:16:47.136Z,13.15
2023-04-08T17:19:34.548Z,13.98
2023-04-08T17:22:22.021Z,11.20
2023-04-08T17:25:09.860Z,9.60
2023-04-08T17:27:58.242Z,9.52
2023-04-08T17:30:46.361Z,10.00
2023-04-08T17:33:34.039Z,10.45
2023-04-08T17:36:21.536Z,15.20
2023-04-08T17:39:09.057Z,15.25
2023-04-08T17:41:57.029Z,10.55
2023-04-08T17:44:44.740Z,7.35
2023-04-08T17:47:32.248Z,7.05
2023-04-08T17:50:21.128Z,6.28
2023-04-08T17:53:08.603Z,7.10
2023-04-08T17:55:56.200Z,5.95
2023-04-08T17:58:43.697Z,6.47
2023-04-08T18:01:31.335Z,6.10
2023-04-08T18:04:18.955Z,6.45
2023-04-08T18:07:06.485Z,6.40
2023-04-08T18:09:53.981Z,6.22
2023-04-08T18:12:41.487Z,6.85
2023-04-08T18:15:29.170Z,7.13
2023-04-08T18:18:19.526Z,6.47
2023-04-08T18:21:08.045Z,6.45
2023-04-08T18:23:55.522Z,6.57
2023-04-08T18:26:43.974Z,7.20
2023-04-08T18:29:32.835Z,8.65
2023-04-08T18:32:20.823Z,7.43
2023-04-08T18:35:08.656Z,7.15
2023-04-08T18:37:56.503Z,9.10
2023-04-08T18:40:45.698Z,8.13
2023-04-08T18:43:33.771Z,9.73
2023-04-08T18:46:21.301Z,7.45
2023-04-08T18:49:08.782Z,7.38
2023-04-08T18:52:02.700Z,8.27
2023-04-08T18:54:51.629Z,7.57
2023-04-08T18:57:39.319Z,9.73
2023-04-08T19:00:26.806Z,8.32
2023-04-08T19:03:14.334Z,10.30
2023-04-08T19:06:06.684Z,8.73
2023-04-08T19:08:54.142Z,7.40
2023-04-08T19:11:41.621Z,8.52
2023-04-08T19:14:29.068Z,8.68
2023-04-08T19:17:16.467Z,8.50
2023-04-08T19:20:04.109Z,9.00
2023-04-08T19:22:52.068Z,8.30
2023-04-08T19:25:39.638Z,9.32
2023-04-08T19:28:27.001Z,9.35
2023-04-08T19:31:17.898Z,10.07
2023-04-08T19:34:05.597Z,8.90
2023-04-08T19:36:53.254Z,11.13
2023-04-08T19:39:40.948Z,9.13
2023-04-08T19:42:29.253Z,9.30
2023-04-08T19:45:17.271Z,11.15
2023-04-08T19:48:05.027Z,8.70
2023-04-08T19:50:52.470Z,9.98
2023-04-08T19:53:39.901Z,10.48
2023-04-08T19:56:27.868Z,10.30
2023-04-08T19:59:17.071Z,10.70
2023-04-08T20:02:05.600Z,12.82
2023-04-08T20:04:57.544Z,12.05
2023-04-08T20:07:44.987Z,11.23
2023-04-08T20:10:38.672Z,11.07
2023-04-08T20:13:27.462Z,11.00
2023-04-08T20:16:15.811Z,10.98
2023-04-08T20:19:07.369Z,10.57
2023-04-08T20:21:55.018Z,12.63
2023-04-08T20:24:42.708Z,10.75
2023-04-08T20:27:30.460Z,11.32
2023-04-08T20:30:21.090Z,12.02
2023-04-08T20:33:08.698Z,14.70
2023-04-08T20:36:00.268Z,11.65
2023-04-08T20:38:48.734Z,12.75
2023-04-08T20:41:38.059Z,11.90
2023-04-08T20:44:37.885Z,11.65
2023-04-08T20:47:31.204Z,13.23
2023-04-08T20:50:19.145Z,13.40
2023-04-08T20:53:07.567Z,12.70
2023-04-08T20:56:02.575Z,13.05
2023-04-08T20:58:50.684Z,12.13
2023-04-08T21:01:38.755Z,14.15
2023-04-08T21:04:29.241Z,12.85
2023-04-08T21:07:16.696Z,11.77
2023-04-08T21:10:06.998Z,13.43
2023-04-08T21:13:00.975Z,13.52
2023-04-08T21:15:51.520Z,12.75
2023-04-08T21:18:39.969Z,12.10
2023-04-08T21:21:27.972Z,12.65
2023-04-08T21:24:15.489Z,12.85
2023-04-08T21:27:03.044Z,13.90
2023-04-08T21:29:53.560Z,12.68
2023-04-08T21:32:41.281Z,13.52
2023-04-08T21:35:28.709Z,13.80
2023-04-08T21:38:16.228Z,14.27
2023-04-08T21:41:03.857Z,12.55
2023-04-08T21:43:51.336Z,13.77
2023-04-08T21:46:38.843Z,12.77
2023-04-08T21:49:26.362Z,14.23
2023-04-08T21:52:13.787Z,13.25
2023-04-08T21:55:01.280Z,13.32
2023-04-08T21:57:48.947Z,13.18
2023-04-08T22:00:36.807Z,14.82
2023-04-08T22:03:24.346Z,12.07
2023-04-08T22:06:19.124Z,14.00
2023-04-08T22:09:13.143Z,14.38
2023-04-08T22:12:02.145Z,12.70
2023-04-08T22:14:49.607Z,13.00
2023-04-08T22:17:37.073Z,13.07
2023-04-08T22:20:24.619Z,13.02
2023-04-08T22:23:12.211Z,12.55
2023-04-08T22:25:59.615Z,13.80
2023-04-08T22:28:47.148Z,14.60
2023-04-08T22:31:34.562Z,14.65
2023-04-08T22:34:21.998Z,13.90
2023-04-08T22:37:09.391Z,13.95
2023-04-08T22:40:00.596Z,14.15
2023-04-08T22:42:48.140Z,16.08
2023-04-08T22:45:37.156Z,14.65
2023-04-08T22:48:24.605Z,14.60
2023-04-08T22:51:12.631Z,14.68
2023-04-08T22:54:01.029Z,12.27
2023-04-08T22:56:48.486Z,13.02
2023-04-08T22:59:35.950Z,14.10
2023-04-08T23:02:23.519Z,15.55
2023-04-08T23:05:11.128Z,15.35
2023-04-08T23:07:58.589Z,15.68
2023-04-08T23:10:46.035Z,15.35
2023-04-08T23:13:33.963Z,14.25
2023-04-08T23:16:21.650Z,15.07
2023-04-08T23:19:09.199Z,15.82
2023-04-08T23:21:56.656Z,15.00
2023-04-08T23:24:44.194Z,16.10
2023-04-08T23:27:31.648Z,14.35
2023-04-08T23:30:19.451Z,15.48
2023-04-08T23:33:06.921Z,15.48
2023-04-08T23:35:54.364Z,16.20
2023-04-08T23:38:41.888Z,16.10
2023-04-08T23:41:29.323Z,17.77
2023-04-08T23:44:16.828Z,18.50
2023-04-08T23:47:04.342Z,16.67
2023-04-08T23:49:51.767Z,16.70
2023-04-08T23:52:39.210Z,20.13
2023-04-08T23:55:26.652Z,17.60
2023-04-08T23:58:14.074Z,19.67
